createdAt,value
2023-03-21T00:03:31.670Z,1564.00
2023-03-21T00:05:31.652Z,1528.00
2023-03-21T00:06:31.591Z,1540.00
2023-03-21T00:07:31.625Z,1569.00
2023-03-21T00:08:31.609Z,1571.00
2023-03-21T00:09:31.591Z,1565.00
2023-03-21T00:10:40.078Z,1571.00
2023-03-21T00:11:32.596Z,1571.00
2023-03-21T00:12:31.557Z,1570.00
2023-03-21T00:13:32.636Z,1570.00
2023-03-21T00:14:31.578Z,1558.00
2023-03-21T00:15:42.545Z,1542.00
2023-03-21T00:16:36.771Z,1572.00
2023-03-21T00:18:31.575Z,1574.00
2023-03-21T00:19:31.579Z,1579.00
2023-03-21T00:20:31.532Z,1573.00
2023-03-21T00:21:55.290Z,1576.00
2023-03-21T00:22:32.497Z,1573.00
2023-03-21T00:23:31.520Z,1571.00
2023-03-21T00:24:31.485Z,1573.00
2023-03-21T00:25:31.474Z,1576.00
2023-03-21T00:26:31.505Z,1492.00
2023-03-21T00:27:50.090Z,1536.00
2023-03-21T00:28:32.455Z,1537.00
2023-03-21T00:29:31.477Z,1540.00
2023-03-21T00:30:31.439Z,1546.00
2023-03-21T00:31:31.575Z,1542.00
2023-03-21T00:32:33.954Z,1535.00
2023-03-21T00:33:31.585Z,1545.00
2023-03-21T00:34:42.809Z,1546.00
2023-03-21T00:35:57.969Z,1547.00
2023-03-21T00:36:32.675Z,1548.00
2023-03-21T00:37:31.573Z,1545.00
2023-03-21T00:38:31.594Z,1544.00
2023-03-21T00:39:31.555Z,1538.00
2023-03-21T00:40:35.334Z,1537.00
2023-03-21T00:41:41.922Z,1547.00
2023-03-21T00:42:32.574Z,1548.00
2023-03-21T00:43:31.536Z,1550.00
2023-03-21T00:44:31.524Z,1548.00
2023-03-21T00:45:31.554Z,1553.00
2023-03-21T00:46:43.730Z,1541.00
2023-03-21T00:47:32.544Z,1548.00
2023-03-21T00:48:31.579Z,1535.00
2023-03-21T00:49:31.530Z,1535.00
2023-03-21T00:50:31.521Z,1527.00
2023-03-21T00:51:31.517Z,1522.00
2023-03-21T00:52:40.660Z,1514.00
2023-03-21T00:53:32.477Z,1515.00
2023-03-21T00:54:31.466Z,1515.00
2023-03-21T00:55:31.474Z,1515.00
2023-03-21T00:56:31.477Z,1501.00
2023-03-21T00:57:38.616Z,1495.00
2023-03-21T00:58:32.443Z,1514.00
2023-03-21T00:59:31.436Z,1498.00
2023-03-21T01:00:31.460Z,1505.00
2023-03-21T01:01:31.518Z,1487.00
2023-03-21T01:02:31.435Z,1514.00
2023-03-21T01:03:31.428Z,1500.00
2023-03-21T01:04:31.428Z,1501.00
2023-03-21T01:05:31.421Z,1482.00
2023-03-21T01:06:31.384Z,1502.00
2023-03-21T01:07:31.393Z,1509.00
2023-03-21T01:08:44.553Z,1510.00
2023-03-21T01:09:32.381Z,1511.00
2023-03-21T01:10:31.375Z,1513.00
2023-03-21T01:11:31.366Z,1480.00
2023-03-21T01:12:31.336Z,1493.00
2023-03-21T01:13:33.077Z,1492.00
2023-03-21T01:14:31.323Z,1520.00
2023-03-21T01:15:31.353Z,1500.00
2023-03-21T01:16:31.437Z,1493.00
2023-03-21T01:17:31.336Z,1496.00
2023-03-21T01:18:31.317Z,1485.00
2023-03-21T01:19:44.716Z,1507.00
2023-03-21T01:20:32.303Z,1509.00
2023-03-21T01:21:31.304Z,1504.00
2023-03-21T01:22:31.271Z,1480.00
2023-03-21T01:23:31.267Z,1475.00
2023-03-21T01:24:32.345Z,1460.00
2023-03-21T01:25:31.273Z,1445.00
2023-03-21T01:27:31.268Z,1481.00
2023-03-21T01:31:31.235Z,1442.00
2023-03-21T01:32:31.267Z,1465.00
2023-03-21T01:33:31.275Z,1434.00
2023-03-21T01:34:31.351Z,1434.00
2023-03-21T01:35:37.490Z,1425.00
2023-03-21T01:37:31.385Z,1425.00
2023-03-21T01:38:31.372Z,1434.00
2023-03-21T01:39:31.360Z,1433.00
2023-03-21T01:40:31.369Z,1427.00
2023-03-21T01:41:43.734Z,1429.00
2023-03-21T01:42:32.348Z,1430.00
2023-03-21T01:43:31.338Z,1424.00
2023-03-21T01:44:31.337Z,1430.00
2023-03-21T01:45:31.415Z,1426.00
2023-03-21T01:46:37.112Z,1413.00
2023-03-21T01:47:32.329Z,1431.00
2023-03-21T01:48:31.322Z,1435.00
2023-03-21T01:49:31.300Z,1426.00
2023-03-21T01:50:31.294Z,1427.00
2023-03-21T01:51:31.288Z,1409.00
2023-03-21T01:52:37.607Z,1418.00
2023-03-21T01:54:31.269Z,1421.00
2023-03-21T02:15:31.230Z,1402.00
2023-03-21T02:16:31.312Z,1424.00
2023-03-21T02:18:31.339Z,1402.00
2023-03-21T02:19:35.680Z,1388.00
2023-03-21T02:20:32.438Z,1390.00
2023-03-21T02:21:31.446Z,1391.00
2023-03-21T02:22:31.395Z,1399.00
2023-03-21T02:23:31.390Z,1409.00
2023-03-21T02:24:31.352Z,1395.00
2023-03-21T02:25:31.387Z,1397.00
2023-03-21T02:27:31.355Z,1377.00
2023-03-21T02:31:31.387Z,1359.00
2023-03-21T02:33:31.406Z,1366.00
2023-03-21T02:34:31.362Z,1372.00
2023-03-21T02:35:32.257Z,1360.00
2023-03-21T02:36:31.525Z,1366.00
2023-03-21T02:37:37.718Z,1379.00
2023-03-21T02:38:32.536Z,1379.00
2023-03-21T02:39:31.490Z,1378.00
2023-03-21T02:40:31.468Z,1365.00
2023-03-21T02:41:38.285Z,1339.00
2023-03-21T02:42:32.473Z,1380.00
2023-03-21T02:45:31.465Z,1352.00
2023-03-21T02:46:41.784Z,1358.00
2023-03-21T02:47:32.461Z,1380.00
2023-03-21T02:48:41.297Z,1357.00
2023-03-21T02:49:32.453Z,1380.00
2023-03-21T02:50:31.408Z,1370.00
2023-03-21T02:51:31.389Z,1341.00
2023-03-21T02:52:39.190Z,1317.00
2023-03-21T02:53:32.394Z,1365.00
2023-03-21T02:54:46.915Z,1348.00
2023-03-21T02:55:32.363Z,1368.00
2023-03-21T02:56:31.392Z,1346.00
2023-03-21T02:57:41.867Z,1339.00
2023-03-21T02:58:32.374Z,1374.00
2023-03-21T02:59:31.930Z,1347.00
2023-03-21T03:00:31.367Z,1328.00
2023-03-21T03:01:31.368Z,1338.00
2023-03-21T03:02:31.362Z,1342.00
2023-03-21T03:03:34.737Z,1344.00
2023-03-21T03:04:31.390Z,1345.00
2023-03-21T03:05:31.297Z,1333.00
2023-03-21T03:06:31.327Z,1341.00
2023-03-21T03:07:31.301Z,1329.00
2023-03-21T03:08:41.359Z,1322.00
2023-03-21T03:10:31.305Z,1343.00
2023-03-21T03:11:31.275Z,1336.00
2023-03-21T03:12:31.264Z,1332.00
2023-03-21T03:13:31.260Z,1317.00
2023-03-21T03:17:31.233Z,1326.00
2023-03-21T03:34:31.306Z,1294.00
2023-03-21T03:35:31.348Z,1285.00
2023-03-21T03:36:32.951Z,1268.00
2023-03-21T03:37:31.357Z,1259.00
2023-03-21T03:38:31.366Z,1257.00
2023-03-21T03:39:31.355Z,1253.00
2023-03-21T03:40:31.382Z,1262.00
2023-03-21T03:41:50.294Z,1273.00
2023-03-21T03:42:32.385Z,1275.00
2023-03-21T03:43:31.381Z,1274.00
2023-03-21T03:44:31.347Z,1275.00
2023-03-21T03:45:31.340Z,1278.00
2023-03-21T03:46:31.360Z,1269.00
2023-03-21T03:47:34.924Z,1268.00
2023-03-21T03:48:31.395Z,1269.00
2023-03-21T03:49:31.337Z,1272.00
2023-03-21T03:50:31.288Z,1275.00
2023-03-21T03:51:31.306Z,1253.00
2023-03-21T03:52:31.294Z,1250.00
2023-03-21T03:53:31.291Z,1247.00
2023-03-21T03:54:31.264Z,1234.00
2023-03-21T03:55:31.278Z,1215.00
2023-03-21T03:56:31.234Z,1236.00
2023-03-21T03:57:31.241Z,1247.00
2023-03-21T03:58:44.542Z,1242.00
2023-03-21T03:59:32.254Z,1243.00
2023-03-21T04:18:31.427Z,1231.00
2023-03-21T04:19:31.479Z,1225.00
2023-03-21T04:20:37.007Z,1241.00
2023-03-21T04:21:32.517Z,1242.00
2023-03-21T04:22:31.487Z,1242.00
2023-03-21T04:23:31.472Z,1241.00
2023-03-21T04:24:31.490Z,1249.00
2023-03-21T04:25:34.136Z,1249.00
2023-03-21T04:26:31.471Z,1287.00
2023-03-21T04:27:31.458Z,1285.00
2023-03-21T04:28:31.476Z,1282.00
2023-03-21T04:29:31.463Z,1282.00
2023-03-21T04:30:31.441Z,1278.00
2023-03-21T04:31:31.496Z,1286.00
2023-03-21T04:32:31.441Z,1294.00
2023-03-21T04:33:31.401Z,1288.00
2023-03-21T04:34:31.378Z,1296.00
2023-03-21T04:35:31.402Z,1289.00
2023-03-21T04:36:31.389Z,1300.00
2023-03-21T04:37:31.396Z,1298.00
2023-03-21T04:38:31.390Z,1292.00
2023-03-21T04:39:31.360Z,1314.00
2023-03-21T04:40:31.375Z,1300.00
2023-03-21T04:41:31.350Z,1294.00
2023-03-21T04:42:31.328Z,1312.00
2023-03-21T04:43:31.362Z,1308.00
2023-03-21T04:44:31.325Z,1307.00
2023-03-21T04:45:31.335Z,1318.00
2023-03-21T04:46:31.312Z,1305.00
2023-03-21T04:47:31.330Z,1298.00
2023-03-21T04:48:31.300Z,1301.00
2023-03-21T04:49:31.307Z,1312.00
2023-03-21T04:50:31.260Z,1309.00
2023-03-21T04:51:31.272Z,1309.00
2023-03-21T04:52:31.303Z,1300.00
2023-03-21T04:53:31.270Z,1307.00
2023-03-21T04:54:31.278Z,1316.00
2023-03-21T04:55:31.269Z,1309.00
2023-03-21T05:52:31.994Z,1251.00
2023-03-21T06:00:32.185Z,1238.00
2023-03-21T06:01:39.202Z,1240.00
2023-03-21T08:33:36.330Z,1414.00
2023-03-21T08:36:36.000Z,1262.00
2023-03-21T08:37:36.034Z,1308.00
2023-03-21T08:38:36.064Z,1254.00
2023-03-21T08:39:36.097Z,1245.00
2023-03-21T08:40:36.133Z,1263.00
2023-03-21T08:41:36.154Z,1202.00
2023-03-21T08:42:36.139Z,1259.00
2023-03-21T08:43:36.323Z,1233.00
2023-03-21T08:44:36.125Z,1208.00
2023-03-21T08:45:36.337Z,1114.00
2023-03-21T08:46:36.171Z,1039.00
2023-03-21T08:47:36.184Z,1035.00
2023-03-21T08:48:36.151Z,1042.00
2023-03-21T08:49:36.158Z,1011.00
2023-03-21T08:50:36.188Z,988.00
2023-03-21T08:51:36.190Z,979.00
2023-03-21T08:52:36.161Z,938.00
2023-03-21T08:53:36.329Z,861.00
2023-03-21T08:54:36.232Z,801.00
2023-03-21T08:55:36.389Z,825.00
2023-03-21T08:56:37.451Z,848.00
2023-03-21T08:57:36.348Z,864.00
2023-03-21T08:58:36.433Z,858.00
2023-03-21T08:59:36.508Z,858.00
2023-03-21T09:00:36.540Z,840.00
2023-03-21T09:01:36.652Z,868.00
2023-03-21T09:02:36.666Z,863.00
2023-03-21T09:03:36.715Z,859.00
2023-03-21T09:04:36.759Z,768.00
2023-03-21T09:05:37.090Z,807.00
2023-03-21T09:06:36.896Z,834.00
2023-03-21T09:07:37.034Z,771.00
2023-03-21T09:08:37.021Z,719.00
2023-03-21T09:09:37.019Z,683.00
2023-03-21T09:10:37.077Z,628.00
2023-03-21T09:11:37.161Z,606.00
2023-03-21T09:12:37.202Z,593.00
2023-03-21T09:13:37.219Z,587.00
2023-03-21T09:14:37.209Z,589.00
2023-03-21T09:15:37.706Z,596.00
2023-03-21T09:16:37.222Z,613.00
2023-03-21T09:17:37.234Z,608.00
2023-03-21T09:18:37.325Z,618.00
2023-03-21T09:19:37.355Z,628.00
2023-03-21T09:20:37.444Z,617.00
2023-03-21T09:21:37.489Z,643.00
2023-03-21T09:22:37.539Z,636.00
2023-03-21T09:23:37.854Z,660.00
2023-03-21T09:24:37.660Z,715.00
2023-03-21T09:25:37.900Z,685.00
2023-03-21T09:26:37.673Z,653.00
2023-03-21T09:27:37.695Z,663.00
2023-03-21T09:28:37.803Z,713.00
2023-03-21T09:29:37.792Z,680.00
2023-03-21T09:30:37.849Z,743.00
2023-03-21T09:31:38.020Z,744.00
2023-03-21T09:32:37.927Z,665.00
2023-03-21T09:33:38.342Z,627.00
2023-03-21T09:34:37.983Z,617.00
2023-03-21T09:35:38.350Z,634.00
2023-03-21T09:36:38.009Z,623.00
2023-03-21T09:37:38.013Z,625.00
2023-03-21T09:38:38.044Z,590.00
2023-03-21T09:39:38.042Z,573.00
2023-03-21T09:40:38.088Z,543.00
2023-03-21T09:45:38.526Z,502.00
2023-03-21T09:46:38.179Z,512.00
2023-03-21T09:47:38.140Z,504.00
2023-03-21T09:48:46.990Z,517.00
2023-03-21T09:49:39.159Z,518.00
2023-03-21T09:50:38.161Z,511.00
2023-03-21T09:52:38.123Z,543.00
2023-03-21T09:53:38.319Z,572.00
2023-03-21T09:54:38.169Z,564.00
2023-03-21T09:55:38.342Z,584.00
2023-03-21T09:56:38.114Z,607.00
2023-03-21T09:57:38.090Z,623.00
2023-03-21T09:58:38.144Z,632.00
2023-03-21T09:59:38.118Z,647.00
2023-03-21T10:00:38.192Z,651.00
2023-03-21T10:01:38.165Z,653.00
2023-03-21T10:02:38.073Z,648.00
2023-03-21T10:03:38.216Z,610.00
2023-03-21T10:04:38.362Z,624.00
2023-03-21T10:05:38.451Z,681.00
2023-03-21T10:06:38.170Z,734.00
2023-03-21T10:07:38.177Z,781.00
2023-03-21T10:08:38.199Z,738.00
2023-03-21T10:09:38.632Z,648.00
2023-03-21T10:10:38.570Z,629.00
2023-03-21T10:12:38.352Z,541.00
2023-03-21T10:13:38.413Z,531.00
2023-03-21T10:15:38.782Z,549.00
2023-03-21T10:16:38.621Z,613.00
2023-03-21T12:43:43.065Z,1607.00
2023-03-21T12:44:43.104Z,1623.00
2023-03-21T12:45:47.087Z,1615.00
2023-03-21T12:46:43.309Z,1617.00
2023-03-21T12:47:43.181Z,1621.00
2023-03-21T12:48:43.132Z,1626.00
2023-03-21T12:49:43.111Z,1633.00
2023-03-21T12:50:43.187Z,1640.00
2023-03-21T12:51:43.110Z,1646.00
2023-03-21T12:52:43.092Z,1653.00
2023-03-21T12:53:43.185Z,1648.00
2023-03-21T12:55:43.070Z,1647.00
2023-03-21T12:56:43.052Z,1653.00
2023-03-21T12:57:51.155Z,1657.00
2023-03-21T12:58:44.051Z,1659.00
2023-03-21T12:59:43.034Z,1662.00
2023-03-21T13:00:43.442Z,1660.00
2023-03-21T13:01:43.026Z,1659.00
2023-03-21T13:02:43.014Z,1664.00
2023-03-21T13:03:43.044Z,1666.00
2023-03-21T13:04:42.991Z,1659.00
2023-03-21T13:05:43.023Z,1655.00
2023-03-21T13:06:42.985Z,1667.00
2023-03-21T13:07:43.003Z,1661.00
2023-03-21T13:08:42.953Z,1668.00
2023-03-21T13:09:43.080Z,1666.00
2023-03-21T13:10:42.974Z,1679.00
2023-03-21T13:11:42.944Z,1681.00
2023-03-21T13:12:42.952Z,1672.00
2023-03-21T13:13:42.931Z,1666.00
2023-03-21T13:14:42.940Z,1652.00
2023-03-21T13:15:42.953Z,1641.00
2023-03-21T13:16:43.113Z,1618.00
2023-03-21T13:17:42.987Z,1605.00
2023-03-21T13:18:43.001Z,1601.00
2023-03-21T13:19:42.989Z,1569.00
2023-03-21T13:20:43.015Z,1547.00
2023-03-21T13:21:43.010Z,1508.00
2023-03-21T13:22:43.036Z,1496.00
2023-03-21T13:23:43.032Z,1445.00
2023-03-21T13:24:43.044Z,1427.00
2023-03-21T13:25:43.165Z,1441.00
2023-03-21T13:26:43.044Z,1441.00
2023-03-21T13:27:43.082Z,1410.00
2023-03-21T13:28:43.095Z,1397.00
2023-03-21T13:29:43.107Z,1431.00
2023-03-21T13:30:43.232Z,1408.00
2023-03-21T13:31:51.720Z,1376.00
2023-03-21T13:32:44.272Z,1378.00
2023-03-21T15:55:45.988Z,1368.00
2023-03-21T15:56:46.168Z,1368.00
2023-03-21T15:57:46.101Z,1367.00
2023-03-21T15:58:46.129Z,1349.00
2023-03-21T15:59:46.190Z,1347.00
2023-03-21T16:00:46.341Z,1329.00
2023-03-21T16:01:46.397Z,1325.00
2023-03-21T16:02:46.378Z,1297.00
2023-03-21T16:03:46.423Z,1324.00
2023-03-21T16:04:46.502Z,1301.00
2023-03-21T16:05:46.645Z,1289.00
2023-03-21T16:06:46.602Z,1282.00
2023-03-21T16:07:46.697Z,1273.00
2023-03-21T16:08:46.752Z,1290.00
2023-03-21T16:09:46.775Z,1289.00
2023-03-21T16:10:46.869Z,1283.00
2023-03-21T16:11:46.912Z,1282.00
2023-03-21T16:12:46.988Z,1279.00
2023-03-21T16:13:47.050Z,1290.00
2023-03-21T16:14:47.093Z,1292.00
2023-03-21T16:15:47.166Z,1296.00
2023-03-21T16:16:47.352Z,1295.00
2023-03-21T16:17:47.258Z,1293.00
2023-03-21T16:18:47.343Z,1305.00
2023-03-21T16:19:47.385Z,1298.00
2023-03-21T16:20:47.480Z,1304.00
2023-03-21T16:21:47.537Z,1301.00
2023-03-21T16:22:47.613Z,1307.00
2023-03-21T16:23:47.682Z,1320.00
2023-03-21T16:24:47.684Z,1305.00
2023-03-21T16:25:47.774Z,1306.00
2023-03-21T16:26:47.915Z,1315.00
2023-03-21T16:27:47.888Z,1312.00
2023-03-21T16:28:47.913Z,1314.00
2023-03-21T16:29:47.933Z,1304.00
2023-03-21T16:30:47.945Z,1316.00
2023-03-21T16:31:48.016Z,1301.00
2023-03-21T16:32:47.976Z,1317.00
2023-03-21T16:33:48.008Z,1300.00
2023-03-21T16:34:47.996Z,1308.00
2023-03-21T16:35:48.068Z,1314.00
2023-03-21T16:36:48.042Z,1302.00
2023-03-21T16:37:48.130Z,1310.00
2023-03-21T16:38:48.085Z,1308.00
2023-03-21T16:39:48.119Z,1293.00
2023-03-21T16:40:48.120Z,1304.00
2023-03-21T16:41:48.140Z,1302.00
2023-03-21T16:42:48.178Z,1305.00
2023-03-21T16:43:48.215Z,1311.00
2023-03-21T16:44:48.188Z,1296.00
2023-03-21T16:45:48.418Z,1309.00
2023-03-21T16:46:48.218Z,1298.00
2023-03-21T16:47:48.376Z,1294.00
2023-03-21T16:48:48.263Z,1306.00
2023-03-21T16:49:48.284Z,1306.00
2023-03-21T16:50:48.343Z,1303.00
2023-03-21T16:51:48.370Z,1309.00
2023-03-21T16:52:48.349Z,1309.00
2023-03-21T16:53:48.362Z,1302.00
2023-03-21T16:54:48.467Z,1312.00
2023-03-21T16:55:48.505Z,1304.00
2023-03-21T16:56:48.535Z,1308.00
2023-03-21T16:57:48.607Z,1315.00
2023-03-21T16:58:48.630Z,1308.00
2023-03-21T16:59:48.662Z,1301.00
2023-03-21T17:00:48.648Z,1307.00
2023-03-21T17:01:48.914Z,1306.00
2023-03-21T17:02:48.731Z,1306.00
2023-03-21T17:03:48.748Z,1308.00
2023-03-21T17:04:48.764Z,1297.00
2023-03-21T17:05:48.755Z,1301.00
2023-03-21T17:06:48.799Z,1287.00
2023-03-21T17:07:48.818Z,1302.00
2023-03-21T17:08:48.871Z,1294.00
2023-03-21T17:09:48.864Z,1302.00
2023-03-21T17:10:48.881Z,1293.00
2023-03-21T17:11:48.898Z,1284.00
2023-03-21T17:12:48.936Z,1290.00
2023-03-21T17:13:48.934Z,1292.00
2023-03-21T17:14:48.945Z,1298.00
2023-03-21T17:15:49.000Z,1287.00
2023-03-21T17:16:49.021Z,1296.00
2023-03-21T17:17:49.056Z,1284.00
2023-03-21T17:18:49.058Z,1284.00
2023-03-21T17:19:49.070Z,1294.00
2023-03-21T17:20:49.075Z,1292.00
2023-03-21T17:21:49.152Z,1291.00
2023-03-21T17:22:49.163Z,1284.00
2023-03-21T17:23:49.172Z,1281.00
2023-03-21T17:24:49.208Z,1279.00
2023-03-21T17:25:49.202Z,1286.00
2023-03-21T17:26:49.208Z,1285.00
2023-03-21T17:27:49.244Z,1280.00
2023-03-21T17:28:49.307Z,1274.00
2023-03-21T17:29:49.341Z,1275.00
2023-03-21T17:30:49.339Z,1275.00
2023-03-21T17:31:49.343Z,1269.00
2023-03-21T17:32:49.391Z,1270.00
2023-03-21T17:33:49.460Z,1291.00
2023-03-21T17:34:49.504Z,1277.00
2023-03-21T17:35:49.566Z,1282.00
2023-03-21T17:36:49.606Z,1273.00
2023-03-21T17:37:49.688Z,1281.00
2023-03-21T17:38:49.746Z,1275.00
2023-03-21T17:39:49.719Z,1274.00
2023-03-21T17:40:50.582Z,1272.00
2023-03-21T17:41:49.905Z,1275.00
2023-03-21T17:42:49.805Z,1279.00
2023-03-21T17:43:49.832Z,1270.00
2023-03-21T17:44:49.867Z,1273.00
2023-03-21T17:45:49.940Z,1269.00
2023-03-21T17:46:51.690Z,1275.00
2023-03-21T17:47:50.102Z,1281.00
2023-03-21T17:48:50.116Z,1268.00
2023-03-21T17:49:50.149Z,1261.00
2023-03-21T17:50:50.185Z,1274.00
2023-03-21T17:51:50.245Z,1264.00
2023-03-21T17:52:50.870Z,1282.00
2023-03-21T17:53:50.356Z,1280.00
2023-03-21T17:54:50.416Z,1278.00
2023-03-21T17:55:50.501Z,1274.00
2023-03-21T17:56:50.538Z,1269.00
2023-03-21T17:57:50.577Z,1281.00
2023-03-21T17:58:50.618Z,1265.00
2023-03-21T17:59:50.685Z,1262.00
2023-03-21T18:00:50.739Z,1268.00
2023-03-21T18:01:50.824Z,1265.00
2023-03-21T18:02:50.830Z,1266.00
2023-03-21T18:03:50.819Z,1248.00
2023-03-21T18:04:50.935Z,1246.00
2023-03-21T18:05:50.951Z,1259.00
2023-03-21T18:06:50.997Z,1245.00
2023-03-21T18:08:10.997Z,1245.00
2023-03-21T18:08:52.916Z,1246.00
2023-03-21T18:09:50.997Z,1246.00
2023-03-21T18:10:50.979Z,1230.00
2023-03-21T18:11:50.993Z,1238.00
2023-03-21T18:12:50.990Z,1234.00
2023-03-21T18:13:50.979Z,1220.00
2023-03-21T18:14:50.965Z,1223.00
2023-03-21T18:15:51.040Z,1215.00
2023-03-21T18:16:51.062Z,1219.00
2023-03-21T18:17:50.966Z,1220.00
2023-03-21T18:40:51.413Z,1184.00
2023-03-21T18:41:51.403Z,1184.00
2023-03-21T18:43:45.495Z,1170.00
2023-03-21T18:45:51.454Z,1174.00
2023-03-21T18:46:51.502Z,1171.00
2023-03-21T18:47:51.435Z,1170.00
2023-03-21T18:48:51.773Z,1174.00
2023-03-21T18:50:14.284Z,1169.00
2023-03-21T18:50:52.417Z,1171.00
2023-03-21T19:42:52.405Z,1077.00
2023-03-21T20:37:54.257Z,994.00
2023-03-21T20:40:54.291Z,969.00
2023-03-21T20:41:54.306Z,985.00
2023-03-21T20:42:55.442Z,978.00
2023-03-21T20:44:59.004Z,968.00
2023-03-21T20:45:55.326Z,970.00
2023-03-21T20:46:54.324Z,977.00
2023-03-21T20:47:54.416Z,979.00
2023-03-21T20:48:54.304Z,989.00
2023-03-21T20:49:54.283Z,989.00
2023-03-21T20:52:46.212Z,982.00
2023-03-21T20:53:06.416Z,984.00
2023-03-21T20:53:55.378Z,984.00
2023-03-21T21:38:54.308Z,894.00
2023-03-21T21:39:54.365Z,899.00
2023-03-21T21:40:54.367Z,896.00
2023-03-21T21:41:54.426Z,905.00
2023-03-21T21:42:54.492Z,897.00
2023-03-21T21:43:54.503Z,878.00
2023-03-21T21:44:54.555Z,886.00
2023-03-21T21:45:54.603Z,869.00
2023-03-21T21:46:54.620Z,878.00
2023-03-21T21:47:54.687Z,865.00
2023-03-21T21:48:54.786Z,890.00
2023-03-21T21:49:54.739Z,877.00
2023-03-21T21:50:54.786Z,888.00
2023-03-21T21:51:54.788Z,893.00
2023-03-21T21:52:54.888Z,879.00
2023-03-21T21:53:54.919Z,887.00
2023-03-21T21:54:54.968Z,889.00
2023-03-21T21:55:54.986Z,892.00
2023-03-21T21:56:55.021Z,895.00
2023-03-21T21:57:55.103Z,885.00
2023-03-21T21:58:55.101Z,879.00
2023-03-21T21:59:55.120Z,884.00
2023-03-21T22:00:55.208Z,894.00
2023-03-21T22:01:55.239Z,892.00
2023-03-21T22:02:55.286Z,886.00
2023-03-21T22:03:55.288Z,874.00
2023-03-21T22:04:55.333Z,860.00
2023-03-21T22:05:55.359Z,876.00
2023-03-21T22:06:55.493Z,884.00
2023-03-21T22:07:55.463Z,863.00
2023-03-21T22:08:55.484Z,876.00
2023-03-21T22:09:55.541Z,866.00
2023-03-21T22:10:55.525Z,860.00
2023-03-21T22:11:55.565Z,868.00
2023-03-21T22:12:55.625Z,862.00
2023-03-21T22:13:55.663Z,851.00
2023-03-21T22:14:55.703Z,857.00
2023-03-21T22:15:55.749Z,839.00
2023-03-21T22:16:55.769Z,853.00
2023-03-21T22:17:55.807Z,847.00
2023-03-21T22:18:55.860Z,848.00
2023-03-21T22:20:05.613Z,836.00
2023-03-21T22:20:56.889Z,837.00
2023-03-21T22:21:55.913Z,838.00
2023-03-21T22:22:55.877Z,843.00
2023-03-21T22:23:55.897Z,842.00
2023-03-21T22:24:55.889Z,826.00
2023-03-21T22:25:55.879Z,840.00
2023-03-21T22:26:55.857Z,847.00
2023-03-21T22:27:55.854Z,836.00
2023-03-21T22:28:55.869Z,837.00
2023-03-21T22:29:55.829Z,832.00
2023-03-21T22:30:55.829Z,839.00
2023-03-21T22:31:55.871Z,831.00
2023-03-21T22:33:08.481Z,828.00
2023-03-21T22:33:56.841Z,830.00
2023-03-21T22:34:55.817Z,833.00
2023-03-21T22:35:55.835Z,841.00
2023-03-21T22:36:55.827Z,841.00
2023-03-21T22:37:55.776Z,854.00
2023-03-21T22:38:55.769Z,846.00
2023-03-21T22:39:55.782Z,842.00
2023-03-21T22:40:55.802Z,847.00
2023-03-21T22:41:55.737Z,840.00
2023-03-21T22:42:55.784Z,849.00
2023-03-21T22:43:55.766Z,841.00
2023-03-21T22:44:55.764Z,842.00
2023-03-21T22:45:55.788Z,835.00
2023-03-21T22:46:55.737Z,833.00
2023-03-21T22:47:55.825Z,820.00
2023-03-21T22:48:55.822Z,840.00
2023-03-21T22:49:55.836Z,844.00
2023-03-21T22:50:55.930Z,838.00
2023-03-21T22:51:55.970Z,834.00
2023-03-21T22:52:55.976Z,832.00
2023-03-21T22:53:56.034Z,840.00
2023-03-21T22:54:56.066Z,844.00
2023-03-21T22:55:56.094Z,813.00
2023-03-21T22:56:56.163Z,816.00
2023-03-21T22:57:56.213Z,822.00
2023-03-21T22:58:56.278Z,837.00
2023-03-21T22:59:56.286Z,820.00
2023-03-21T23:00:56.335Z,833.00
2023-03-21T23:01:56.260Z,825.00
2023-03-21T23:02:56.272Z,834.00
2023-03-21T23:03:56.308Z,818.00
2023-03-21T23:04:56.282Z,829.00
2023-03-21T23:05:56.747Z,808.00
2023-03-21T23:06:56.298Z,797.00
2023-03-21T23:07:56.262Z,803.00
2023-03-21T23:08:56.260Z,796.00
2023-03-21T23:09:56.275Z,791.00
2023-03-21T23:10:56.289Z,790.00
2023-03-21T23:11:56.273Z,800.00
2023-03-21T23:12:56.267Z,787.00
2023-03-21T23:14:07.304Z,796.00
2023-03-21T23:14:57.259Z,797.00
2023-03-21T23:15:56.253Z,785.00
2023-03-21T23:16:56.233Z,779.00
2023-03-21T23:17:56.243Z,799.00
2023-03-21T23:18:56.237Z,796.00
2023-03-21T23:19:56.237Z,782.00
2023-03-21T23:20:56.219Z,778.00
2023-03-21T23:21:56.195Z,760.00
2023-03-21T23:22:56.183Z,772.00
2023-03-21T23:23:56.221Z,764.00
2023-03-21T23:24:56.176Z,774.00
2023-03-21T23:25:56.188Z,779.00
2023-03-21T23:26:56.260Z,747.00
2023-03-21T23:27:56.294Z,742.00
2023-03-21T23:28:56.353Z,764.00
2023-03-21T23:29:56.424Z,754.00
2023-03-21T23:30:56.424Z,756.00
